Terminal Aerodrome Forecast
Issued by NWS Portland, OR

Home | Current Version | Previous Version | Text Only | Print | Product List | Glossary On
Versions: 1 2 3 4 5 6 7 8 9 10 11 12 13 14 15 16 17 18 19 20 21 22 23 24 25 26 27 28 29 30 31 32 33 34 35
000
FTUS46 KPQR 261128
TAFAST
TAF
KAST 261128Z 2612/2712 12003KT P6SM SKC
     FM261600 30007KT P6SM SKC
     FM262100 28010KT P6SM SKC
     FM270200 24007KT P6SM SKC
     FM270800 22004KT 2SM BR BKN004 OVC008=

USA.gov is the U.S. government's official web portal to all federal, state and local government web resources and services.